Terminal Aerodrome Forecast
Issued by NWS Pendleton, OR

Home | Current Version | Previous Version | Text Only | Print | Product List | Glossary On
Versions: 1 2 3 4 5 6 7 8 9 10 11 12 13 14 15 16 17 18 19 20 21 22 23
000
FTUS46 KPDT 111140
TAFPDT
TAF
KPDT 111140Z 1112/1212 20008KT P6SM SCT050 OVC080
     FM111600 19008KT 6SM -RASN BR SCT028 OVC040
     FM112100 24011G17KT P6SM VCSH SCT050 OVC110
     FM120400 21009KT P6SM SCT050 BKN150=

USA.gov is the U.S. government's official web portal to all federal, state and local government web resources and services.